sensor_id;sensor_type;location;lat;lon;timestamp;temperature;humidity
3860;DHT22;1945;52.036;8.614;2023-05-27T00:00:47;8.40;1.00
3860;DHT22;1945;52.036;8.614;2023-05-27T00:03:14;8.40;1.00
3860;DHT22;1945;52.036;8.614;2023-05-27T00:05:40;8.30;1.00
3860;DHT22;1945;52.036;8.614;2023-05-27T00:08:08;8.30;1.00
3860;DHT22;1945;52.036;8.614;2023-05-27T00:10:35;8.30;1.00
3860;DHT22;1945;52.036;8.614;2023-05-27T00:13:02;8.20;1.00
3860;DHT22;1945;52.036;8.614;2023-05-27T00:15:28;8.00;1.00
3860;DHT22;1945;52.036;8.614;2023-05-27T00:17:57;8.10;1.00
3860;DHT22;1945;52.036;8.614;2023-05-27T00:20:25;8.10;1.00
3860;DHT22;1945;52.036;8.614;2023-05-27T00:22:52;8.10;1.00
3860;DHT22;1945;52.036;8.614;2023-05-27T00:25:20;8.00;1.00
3860;DHT22;1945;52.036;8.614;2023-05-27T00:27:46;8.00;1.00
3860;DHT22;1945;52.036;8.614;2023-05-27T00:30:13;7.90;1.00
3860;DHT22;1945;52.036;8.614;2023-05-27T00:32:40;7.80;1.00
3860;DHT22;1945;52.036;8.614;2023-05-27T00:35:07;7.80;1.00
3860;DHT22;1945;52.036;8.614;2023-05-27T00:37:34;7.70;1.00
3860;DHT22;1945;52.036;8.614;2023-05-27T00:40:01;7.70;1.00
3860;DHT22;1945;52.036;8.614;2023-05-27T00:42:29;7.70;1.00
3860;DHT22;1945;52.036;8.614;2023-05-27T00:44:56;7.60;1.00
3860;DHT22;1945;52.036;8.614;2023-05-27T00:47:23;7.60;1.00
3860;DHT22;1945;52.036;8.614;2023-05-27T00:49:52;7.60;1.00
3860;DHT22;1945;52.036;8.614;2023-05-27T00:52:19;7.70;1.00
3860;DHT22;1945;52.036;8.614;2023-05-27T00:54:46;7.60;1.00
3860;DHT22;1945;52.036;8.614;2023-05-27T00:57:13;7.60;1.00
3860;DHT22;1945;52.036;8.614;2023-05-27T00:59:41;7.60;1.00
3860;DHT22;1945;52.036;8.614;2023-05-27T01:02:08;7.60;1.00
3860;DHT22;1945;52.036;8.614;2023-05-27T01:04:35;7.50;1.00
3860;DHT22;1945;52.036;8.614;2023-05-27T01:07:08;7.80;1.00
3860;DHT22;1945;52.036;8.614;2023-05-27T01:09:40;7.40;1.00
3860;DHT22;1945;52.036;8.614;2023-05-27T01:12:14;7.40;1.00
3860;DHT22;1945;52.036;8.614;2023-05-27T01:14:44;7.30;1.00
3860;DHT22;1945;52.036;8.614;2023-05-27T01:17:11;7.30;1.00
3860;DHT22;1945;52.036;8.614;2023-05-27T01:19:43;7.30;1.00
3860;DHT22;1945;52.036;8.614;2023-05-27T01:22:12;7.60;1.00
3860;DHT22;1945;52.036;8.614;2023-05-27T01:24:41;7.20;1.00
3860;DHT22;1945;52.036;8.614;2023-05-27T01:27:08;7.20;1.00
3860;DHT22;1945;52.036;8.614;2023-05-27T01:29:38;7.20;1.00
3860;DHT22;1945;52.036;8.614;2023-05-27T01:32:10;7.50;1.00
3860;DHT22;1945;52.036;8.614;2023-05-27T01:34:43;7.20;1.00
3860;DHT22;1945;52.036;8.614;2023-05-27T01:37:13;7.20;1.00
3860;DHT22;1945;52.036;8.614;2023-05-27T01:39:44;7.10;1.00
3860;DHT22;1945;52.036;8.614;2023-05-27T01:42:11;7.10;1.00
3860;DHT22;1945;52.036;8.614;2023-05-27T01:44:39;7.10;1.00
3860;DHT22;1945;52.036;8.614;2023-05-27T01:47:06;7.10;1.00
3860;DHT22;1945;52.036;8.614;2023-05-27T01:49:32;7.10;1.00
3860;DHT22;1945;52.036;8.614;2023-05-27T01:52:00;7.10;1.00
3860;DHT22;1945;52.036;8.614;2023-05-27T01:54:27;7.00;1.00
3860;DHT22;1945;52.036;8.614;2023-05-27T01:56:55;6.90;1.00
3860;DHT22;1945;52.036;8.614;2023-05-27T01:59:22;6.90;1.00
3860;DHT22;1945;52.036;8.614;2023-05-27T02:01:49;6.90;1.00
3860;DHT22;1945;52.036;8.614;2023-05-27T02:04:17;6.90;1.00
3860;DHT22;1945;52.036;8.614;2023-05-27T02:06:44;6.80;1.00
3860;DHT22;1945;52.036;8.614;2023-05-27T02:09:10;6.80;1.00
3860;DHT22;1945;52.036;8.614;2023-05-27T02:11:38;6.80;1.00
3860;DHT22;1945;52.036;8.614;2023-05-27T02:14:06;6.80;1.00
3860;DHT22;1945;52.036;8.614;2023-05-27T02:16:33;6.70;1.00
3860;DHT22;1945;52.036;8.614;2023-05-27T02:19:00;6.70;1.00
3860;DHT22;1945;52.036;8.614;2023-05-27T02:21:27;7.10;1.00
3860;DHT22;1945;52.036;8.614;2023-05-27T02:23:54;6.60;1.00
3860;DHT22;1945;52.036;8.614;2023-05-27T02:26:21;6.60;1.00
3860;DHT22;1945;52.036;8.614;2023-05-27T02:28:47;6.60;1.00
3860;DHT22;1945;52.036;8.614;2023-05-27T02:31:16;6.60;1.00
3860;DHT22;1945;52.036;8.614;2023-05-27T02:33:42;6.60;1.00
3860;DHT22;1945;52.036;8.614;2023-05-27T02:36:09;6.60;1.00
3860;DHT22;1945;52.036;8.614;2023-05-27T02:38:36;6.50;1.00
3860;DHT22;1945;52.036;8.614;2023-05-27T02:41:03;6.50;1.00
3860;DHT22;1945;52.036;8.614;2023-05-27T02:43:30;6.50;1.00
3860;DHT22;1945;52.036;8.614;2023-05-27T02:45:57;6.50;1.00
3860;DHT22;1945;52.036;8.614;2023-05-27T02:48:25;6.50;1.00
3860;DHT22;1945;52.036;8.614;2023-05-27T02:50:51;6.50;1.00
3860;DHT22;1945;52.036;8.614;2023-05-27T02:53:18;6.40;1.00
3860;DHT22;1945;52.036;8.614;2023-05-27T02:55:45;6.40;1.00
3860;DHT22;1945;52.036;8.614;2023-05-27T02:58:11;6.40;1.00
3860;DHT22;1945;52.036;8.614;2023-05-27T03:00:38;6.40;1.00
3860;DHT22;1945;52.036;8.614;2023-05-27T03:03:05;6.40;1.00
3860;DHT22;1945;52.036;8.614;2023-05-27T03:05:34;6.40;1.00
3860;DHT22;1945;52.036;8.614;2023-05-27T03:08:01;6.40;1.00
3860;DHT22;1945;52.036;8.614;2023-05-27T03:10:28;6.40;1.00
3860;DHT22;1945;52.036;8.614;2023-05-27T03:12:55;6.40;1.00
3860;DHT22;1945;52.036;8.614;2023-05-27T03:15:21;6.70;1.00
3860;DHT22;1945;52.036;8.614;2023-05-27T03:17:48;6.40;1.00
3860;DHT22;1945;52.036;8.614;2023-05-27T03:20:15;6.40;1.00
3860;DHT22;1945;52.036;8.614;2023-05-27T03:22:45;6.40;1.00
3860;DHT22;1945;52.036;8.614;2023-05-27T03:25:12;6.40;1.00
3860;DHT22;1945;52.036;8.614;2023-05-27T03:27:39;6.30;1.00
3860;DHT22;1945;52.036;8.614;2023-05-27T03:30:07;6.30;1.00
3860;DHT22;1945;52.036;8.614;2023-05-27T03:32:33;6.30;1.00
3860;DHT22;1945;52.036;8.614;2023-05-27T03:35:00;6.30;1.00
3860;DHT22;1945;52.036;8.614;2023-05-27T03:37:27;6.40;1.00
3860;DHT22;1945;52.036;8.614;2023-05-27T03:39:55;6.40;1.00
3860;DHT22;1945;52.036;8.614;2023-05-27T03:42:22;6.20;1.00
3860;DHT22;1945;52.036;8.614;2023-05-27T03:44:49;6.50;1.00
3860;DHT22;1945;52.036;8.614;2023-05-27T03:47:16;6.50;1.00
3860;DHT22;1945;52.036;8.614;2023-05-27T03:49:46;6.60;1.00
3860;DHT22;1945;52.036;8.614;2023-05-27T03:52:12;6.60;1.00
3860;DHT22;1945;52.036;8.614;2023-05-27T03:54:39;6.60;1.00
3860;DHT22;1945;52.036;8.614;2023-05-27T03:57:08;6.90;1.00
3860;DHT22;1945;52.036;8.614;2023-05-27T03:59:36;7.10;1.00
3860;DHT22;1945;52.036;8.614;2023-05-27T04:02:03;7.20;1.00
3860;DHT22;1945;52.036;8.614;2023-05-27T04:04:29;7.30;1.00
3860;DHT22;1945;52.036;8.614;2023-05-27T04:06:56;7.50;1.00
3860;DHT22;1945;52.036;8.614;2023-05-27T04:09:23;7.70;1.00
3860;DHT22;1945;52.036;8.614;2023-05-27T04:11:50;7.90;1.00
3860;DHT22;1945;52.036;8.614;2023-05-27T04:14:18;8.00;1.00
3860;DHT22;1945;52.036;8.614;2023-05-27T04:16:45;8.10;1.00
3860;DHT22;1945;52.036;8.614;2023-05-27T04:19:12;8.20;1.00
3860;DHT22;1945;52.036;8.614;2023-05-27T04:21:39;8.50;99.90
3860;DHT22;1945;52.036;8.614;2023-05-27T04:24:06;8.60;99.90
3860;DHT22;1945;52.036;8.614;2023-05-27T04:26:32;8.80;99.90
3860;DHT22;1945;52.036;8.614;2023-05-27T04:28:59;9.10;99.90
3860;DHT22;1945;52.036;8.614;2023-05-27T04:31:27;9.30;99.90
3860;DHT22;1945;52.036;8.614;2023-05-27T04:33:55;9.50;99.90
3860;DHT22;1945;52.036;8.614;2023-05-27T04:36:21;9.40;99.90
3860;DHT22;1945;52.036;8.614;2023-05-27T04:38:50;9.70;99.90
3860;DHT22;1945;52.036;8.614;2023-05-27T04:41:17;9.70;62.70
3860;DHT22;1945;52.036;8.614;2023-05-27T04:43:46;9.80;57.40
3860;DHT22;1945;52.036;8.614;2023-05-27T04:46:13;10.00;21.20
3860;DHT22;1945;52.036;8.614;2023-05-27T04:48:42;10.50;4.80
3860;DHT22;1945;52.036;8.614;2023-05-27T04:51:12;10.90;1.00
3860;DHT22;1945;52.036;8.614;2023-05-27T04:53:41;11.10;1.00
3860;DHT22;1945;52.036;8.614;2023-05-27T04:56:07;11.10;1.00
3860;DHT22;1945;52.036;8.614;2023-05-27T04:58:34;11.30;1.00
3860;DHT22;1945;52.036;8.614;2023-05-27T05:01:02;11.70;1.00
3860;DHT22;1945;52.036;8.614;2023-05-27T05:03:30;12.10;1.00
3860;DHT22;1945;52.036;8.614;2023-05-27T05:06:06;12.30;1.00
3860;DHT22;1945;52.036;8.614;2023-05-27T05:08:33;12.30;1.00
3860;DHT22;1945;52.036;8.614;2023-05-27T05:11:00;12.60;1.00
3860;DHT22;1945;52.036;8.614;2023-05-27T05:13:26;13.00;1.00
3860;DHT22;1945;52.036;8.614;2023-05-27T05:15:54;13.30;1.00
3860;DHT22;1945;52.036;8.614;2023-05-27T05:18:21;13.50;1.00
3860;DHT22;1945;52.036;8.614;2023-05-27T05:20:48;13.60;99.90
3860;DHT22;1945;52.036;8.614;2023-05-27T05:23:16;13.60;99.90
3860;DHT22;1945;52.036;8.614;2023-05-27T05:25:43;14.10;99.90
3860;DHT22;1945;52.036;8.614;2023-05-27T05:28:10;14.20;99.90
3860;DHT22;1945;52.036;8.614;2023-05-27T05:30:37;14.60;99.90
3860;DHT22;1945;52.036;8.614;2023-05-27T05:33:04;14.70;99.90
3860;DHT22;1945;52.036;8.614;2023-05-27T05:35:31;14.70;99.90
3860;DHT22;1945;52.036;8.614;2023-05-27T05:37:57;14.90;99.90
3860;DHT22;1945;52.036;8.614;2023-05-27T05:40:25;15.10;99.90
3860;DHT22;1945;52.036;8.614;2023-05-27T05:42:52;15.30;99.90
3860;DHT22;1945;52.036;8.614;2023-05-27T05:45:19;15.60;99.90
3860;DHT22;1945;52.036;8.614;2023-05-27T05:47:45;15.90;99.90
3860;DHT22;1945;52.036;8.614;2023-05-27T05:50:12;15.90;99.90
3860;DHT22;1945;52.036;8.614;2023-05-27T05:52:39;16.20;99.90
3860;DHT22;1945;52.036;8.614;2023-05-27T05:55:06;16.30;1.00
3860;DHT22;1945;52.036;8.614;2023-05-27T05:57:34;16.40;1.00
3860;DHT22;1945;52.036;8.614;2023-05-27T06:00:01;16.80;20.80
3860;DHT22;1945;52.036;8.614;2023-05-27T06:02:28;17.00;1.00
3860;DHT22;1945;52.036;8.614;2023-05-27T06:04:55;17.40;1.00
3860;DHT22;1945;52.036;8.614;2023-05-27T06:07:22;17.40;1.00
3860;DHT22;1945;52.036;8.614;2023-05-27T06:09:48;17.50;1.00
3860;DHT22;1945;52.036;8.614;2023-05-27T06:12:15;17.60;1.00
3860;DHT22;1945;52.036;8.614;2023-05-27T06:14:43;17.70;1.00
3860;DHT22;1945;52.036;8.614;2023-05-27T06:17:10;17.70;1.00
3860;DHT22;1945;52.036;8.614;2023-05-27T06:19:36;17.60;1.00
3860;DHT22;1945;52.036;8.614;2023-05-27T06:22:03;17.30;1.00
3860;DHT22;1945;52.036;8.614;2023-05-27T06:24:31;17.50;1.00
3860;DHT22;1945;52.036;8.614;2023-05-27T06:26:57;17.80;1.00
3860;DHT22;1945;52.036;8.614;2023-05-27T06:29:24;18.20;1.00
3860;DHT22;1945;52.036;8.614;2023-05-27T06:31:52;18.30;1.00
3860;DHT22;1945;52.036;8.614;2023-05-27T06:34:20;18.70;1.00
3860;DHT22;1945;52.036;8.614;2023-05-27T06:36:46;18.20;1.00
3860;DHT22;1945;52.036;8.614;2023-05-27T06:39:14;18.00;1.00
3860;DHT22;1945;52.036;8.614;2023-05-27T06:41:41;17.20;1.00
3860;DHT22;1945;52.036;8.614;2023-05-27T06:44:07;17.40;1.00
3860;DHT22;1945;52.036;8.614;2023-05-27T06:46:34;18.70;1.00
3860;DHT22;1945;52.036;8.614;2023-05-27T06:49:02;18.40;1.00
3860;DHT22;1945;52.036;8.614;2023-05-27T06:51:29;18.20;1.00
3860;DHT22;1945;52.036;8.614;2023-05-27T06:53:56;18.80;1.00
3860;DHT22;1945;52.036;8.614;2023-05-27T06:56:23;19.40;1.00
3860;DHT22;1945;52.036;8.614;2023-05-27T06:58:50;19.30;1.00
3860;DHT22;1945;52.036;8.614;2023-05-27T07:01:16;19.40;1.00
3860;DHT22;1945;52.036;8.614;2023-05-27T07:03:43;18.90;1.00
3860;DHT22;1945;52.036;8.614;2023-05-27T07:06:11;18.50;1.00
3860;DHT22;1945;52.036;8.614;2023-05-27T07:08:38;19.00;1.00
3860;DHT22;1945;52.036;8.614;2023-05-27T07:11:04;19.60;1.00
3860;DHT22;1945;52.036;8.614;2023-05-27T07:13:31;20.20;1.00
3860;DHT22;1945;52.036;8.614;2023-05-27T07:15:58;19.70;1.00
3860;DHT22;1945;52.036;8.614;2023-05-27T07:18:25;19.80;1.00
3860;DHT22;1945;52.036;8.614;2023-05-27T07:20:51;20.40;1.00
3860;DHT22;1945;52.036;8.614;2023-05-27T07:23:20;20.30;1.00
3860;DHT22;1945;52.036;8.614;2023-05-27T07:25:46;20.10;1.00
3860;DHT22;1945;52.036;8.614;2023-05-27T07:28:13;20.30;1.00
3860;DHT22;1945;52.036;8.614;2023-05-27T07:30:40;20.40;1.00
3860;DHT22;1945;52.036;8.614;2023-05-27T07:33:06;20.60;1.00
3860;DHT22;1945;52.036;8.614;2023-05-27T07:35:33;20.70;1.00
3860;DHT22;1945;52.036;8.614;2023-05-27T07:38:00;21.10;1.00
3860;DHT22;1945;52.036;8.614;2023-05-27T07:40:29;21.10;1.00
3860;DHT22;1945;52.036;8.614;2023-05-27T07:42:56;21.30;1.00
3860;DHT22;1945;52.036;8.614;2023-05-27T07:45:22;21.30;1.00
3860;DHT22;1945;52.036;8.614;2023-05-27T07:47:49;21.00;1.00
3860;DHT22;1945;52.036;8.614;2023-05-27T07:50:16;21.50;1.00
3860;DHT22;1945;52.036;8.614;2023-05-27T07:52:44;21.20;1.00
3860;DHT22;1945;52.036;8.614;2023-05-27T07:55:10;21.80;1.00
3860;DHT22;1945;52.036;8.614;2023-05-27T07:57:38;21.50;1.00
3860;DHT22;1945;52.036;8.614;2023-05-27T08:00:07;21.40;1.00
3860;DHT22;1945;52.036;8.614;2023-05-27T08:02:35;20.90;1.00
3860;DHT22;1945;52.036;8.614;2023-05-27T08:05:02;21.00;1.00
3860;DHT22;1945;52.036;8.614;2023-05-27T08:07:30;21.10;1.00
3860;DHT22;1945;52.036;8.614;2023-05-27T08:09:57;21.30;1.00
3860;DHT22;1945;52.036;8.614;2023-05-27T08:12:23;21.50;1.00
3860;DHT22;1945;52.036;8.614;2023-05-27T08:14:52;21.70;1.00
3860;DHT22;1945;52.036;8.614;2023-05-27T08:17:19;21.50;1.00
3860;DHT22;1945;52.036;8.614;2023-05-27T08:19:46;21.70;1.00
3860;DHT22;1945;52.036;8.614;2023-05-27T08:22:12;21.50;1.00
3860;DHT22;1945;52.036;8.614;2023-05-27T08:24:39;21.20;1.00
3860;DHT22;1945;52.036;8.614;2023-05-27T08:27:15;21.50;1.00
3860;DHT22;1945;52.036;8.614;2023-05-27T08:29:42;21.30;1.00
3860;DHT22;1945;52.036;8.614;2023-05-27T08:32:10;20.50;1.00
3860;DHT22;1945;52.036;8.614;2023-05-27T08:34:37;20.60;1.00
3860;DHT22;1945;52.036;8.614;2023-05-27T08:37:04;20.00;1.00
3860;DHT22;1945;52.036;8.614;2023-05-27T08:39:34;20.50;1.00
3860;DHT22;1945;52.036;8.614;2023-05-27T08:42:00;20.50;1.00
3860;DHT22;1945;52.036;8.614;2023-05-27T08:44:28;20.50;1.00
3860;DHT22;1945;52.036;8.614;2023-05-27T08:46:55;20.40;1.00
3860;DHT22;1945;52.036;8.614;2023-05-27T08:49:23;20.30;1.00
3860;DHT22;1945;52.036;8.614;2023-05-27T08:51:50;20.10;1.00
3860;DHT22;1945;52.036;8.614;2023-05-27T08:54:20;20.00;1.00
3860;DHT22;1945;52.036;8.614;2023-05-27T08:56:49;19.60;1.00
3860;DHT22;1945;52.036;8.614;2023-05-27T08:59:18;19.60;1.00
3860;DHT22;1945;52.036;8.614;2023-05-27T09:01:45;19.50;1.00
3860;DHT22;1945;52.036;8.614;2023-05-27T09:04:12;19.60;1.00
3860;DHT22;1945;52.036;8.614;2023-05-27T09:06:41;19.50;1.00
3860;DHT22;1945;52.036;8.614;2023-05-27T09:09:07;19.60;1.00
3860;DHT22;1945;52.036;8.614;2023-05-27T09:11:38;19.40;1.00
3860;DHT22;1945;52.036;8.614;2023-05-27T09:14:06;19.80;1.00
3860;DHT22;1945;52.036;8.614;2023-05-27T09:16:32;19.30;1.00
3860;DHT22;1945;52.036;8.614;2023-05-27T09:18:59;19.70;1.00
3860;DHT22;1945;52.036;8.614;2023-05-27T09:21:26;20.10;1.00
3860;DHT22;1945;52.036;8.614;2023-05-27T09:23:56;20.20;1.00
3860;DHT22;1945;52.036;8.614;2023-05-27T09:26:23;20.10;1.00
3860;DHT22;1945;52.036;8.614;2023-05-27T09:28:50;20.00;1.00
3860;DHT22;1945;52.036;8.614;2023-05-27T09:31:17;19.70;1.00
3860;DHT22;1945;52.036;8.614;2023-05-27T09:33:44;19.90;1.00
3860;DHT22;1945;52.036;8.614;2023-05-27T09:36:11;19.90;1.00
3860;DHT22;1945;52.036;8.614;2023-05-27T09:38:37;19.90;1.00
3860;DHT22;1945;52.036;8.614;2023-05-27T09:41:05;19.50;1.00
3860;DHT22;1945;52.036;8.614;2023-05-27T09:43:33;19.40;1.00
3860;DHT22;1945;52.036;8.614;2023-05-27T09:46:01;19.30;1.00
3860;DHT22;1945;52.036;8.614;2023-05-27T09:48:29;19.70;1.00
3860;DHT22;1945;52.036;8.614;2023-05-27T09:50:57;19.70;1.00
3860;DHT22;1945;52.036;8.614;2023-05-27T09:53:26;20.10;1.00
3860;DHT22;1945;52.036;8.614;2023-05-27T09:55:53;19.90;1.00
3860;DHT22;1945;52.036;8.614;2023-05-27T09:58:22;19.70;1.00
3860;DHT22;1945;52.036;8.614;2023-05-27T10:00:50;19.80;1.00
3860;DHT22;1945;52.036;8.614;2023-05-27T10:03:17;19.70;1.00
3860;DHT22;1945;52.036;8.614;2023-05-27T10:05:49;19.90;1.00
3860;DHT22;1945;52.036;8.614;2023-05-27T10:08:16;20.00;1.00
3860;DHT22;1945;52.036;8.614;2023-05-27T10:10:44;19.70;1.00
3860;DHT22;1945;52.036;8.614;2023-05-27T10:13:12;19.90;1.00
3860;DHT22;1945;52.036;8.614;2023-05-27T10:15:46;20.40;1.00
3860;DHT22;1945;52.036;8.614;2023-05-27T10:18:23;20.20;1.00
3860;DHT22;1945;52.036;8.614;2023-05-27T10:20:50;20.10;1.00
3860;DHT22;1945;52.036;8.614;2023-05-27T10:23:20;20.40;1.00
3860;DHT22;1945;52.036;8.614;2023-05-27T10:25:48;19.70;1.00
3860;DHT22;1945;52.036;8.614;2023-05-27T10:28:26;20.00;1.00
3860;DHT22;1945;52.036;8.614;2023-05-27T10:31:03;20.20;1.00
3860;DHT22;1945;52.036;8.614;2023-05-27T10:33:30;19.60;1.00
3860;DHT22;1945;52.036;8.614;2023-05-27T10:36:04;19.80;1.00
3860;DHT22;1945;52.036;8.614;2023-05-27T10:38:31;19.90;1.00
3860;DHT22;1945;52.036;8.614;2023-05-27T10:40:59;20.10;1.00
3860;DHT22;1945;52.036;8.614;2023-05-27T10:43:28;19.90;1.00
3860;DHT22;1945;52.036;8.614;2023-05-27T10:46:03;20.20;1.00
3860;DHT22;1945;52.036;8.614;2023-05-27T10:48:31;20.00;1.00
3860;DHT22;1945;52.036;8.614;2023-05-27T10:50:58;20.30;1.00
3860;DHT22;1945;52.036;8.614;2023-05-27T10:53:26;20.30;1.00
3860;DHT22;1945;52.036;8.614;2023-05-27T10:55:53;20.10;1.00
3860;DHT22;1945;52.036;8.614;2023-05-27T10:58:21;20.20;1.00
3860;DHT22;1945;52.036;8.614;2023-05-27T11:00:49;20.10;1.00
3860;DHT22;1945;52.036;8.614;2023-05-27T11:03:19;19.70;1.00
3860;DHT22;1945;52.036;8.614;2023-05-27T11:05:55;20.00;1.00
3860;DHT22;1945;52.036;8.614;2023-05-27T11:08:22;19.60;1.00
3860;DHT22;1945;52.036;8.614;2023-05-27T11:10:49;20.10;99.90
3860;DHT22;1945;52.036;8.614;2023-05-27T11:13:18;20.40;99.90
3860;DHT22;1945;52.036;8.614;2023-05-27T11:15:45;20.40;99.90
3860;DHT22;1945;52.036;8.614;2023-05-27T11:18:11;20.50;99.90
3860;DHT22;1945;52.036;8.614;2023-05-27T11:20:40;20.60;99.90
3860;DHT22;1945;52.036;8.614;2023-05-27T11:23:06;20.40;99.90
3860;DHT22;1945;52.036;8.614;2023-05-27T11:25:42;20.60;99.90
3860;DHT22;1945;52.036;8.614;2023-05-27T11:28:14;20.60;99.90
3860;DHT22;1945;52.036;8.614;2023-05-27T11:30:42;20.50;99.90
3860;DHT22;1945;52.036;8.614;2023-05-27T11:33:09;19.90;99.90
3860;DHT22;1945;52.036;8.614;2023-05-27T11:35:35;20.30;99.90
3860;DHT22;1945;52.036;8.614;2023-05-27T11:38:03;20.30;99.90
3860;DHT22;1945;52.036;8.614;2023-05-27T11:40:34;20.70;99.90
3860;DHT22;1945;52.036;8.614;2023-05-27T11:43:01;20.60;99.90
3860;DHT22;1945;52.036;8.614;2023-05-27T11:45:28;20.40;99.90
3860;DHT22;1945;52.036;8.614;2023-05-27T11:47:55;20.30;99.90
3860;DHT22;1945;52.036;8.614;2023-05-27T11:50:24;20.60;99.90
3860;DHT22;1945;52.036;8.614;2023-05-27T11:52:53;20.80;99.90
3860;DHT22;1945;52.036;8.614;2023-05-27T11:55:21;20.70;99.90
3860;DHT22;1945;52.036;8.614;2023-05-27T11:57:48;20.60;99.90
3860;DHT22;1945;52.036;8.614;2023-05-27T12:00:15;20.60;99.90
3860;DHT22;1945;52.036;8.614;2023-05-27T12:02:43;20.60;99.90
3860;DHT22;1945;52.036;8.614;2023-05-27T12:05:10;20.70;99.90
3860;DHT22;1945;52.036;8.614;2023-05-27T12:07:37;20.90;99.90
3860;DHT22;1945;52.036;8.614;2023-05-27T12:10:07;21.00;99.90
3860;DHT22;1945;52.036;8.614;2023-05-27T12:12:35;20.90;99.90
3860;DHT22;1945;52.036;8.614;2023-05-27T12:15:04;20.80;99.90
3860;DHT22;1945;52.036;8.614;2023-05-27T12:17:30;20.70;99.90
3860;DHT22;1945;52.036;8.614;2023-05-27T12:19:57;21.00;99.90
3860;DHT22;1945;52.036;8.614;2023-05-27T12:22:24;20.60;99.90
3860;DHT22;1945;52.036;8.614;2023-05-27T12:24:50;20.40;99.90
3860;DHT22;1945;52.036;8.614;2023-05-27T12:27:18;20.30;99.90
3860;DHT22;1945;52.036;8.614;2023-05-27T12:29:46;20.20;99.90
3860;DHT22;1945;52.036;8.614;2023-05-27T12:32:13;20.50;99.90
3860;DHT22;1945;52.036;8.614;2023-05-27T12:34:40;20.80;99.90
3860;DHT22;1945;52.036;8.614;2023-05-27T12:37:06;20.80;99.90
3860;DHT22;1945;52.036;8.614;2023-05-27T12:39:33;21.00;99.90
3860;DHT22;1945;52.036;8.614;2023-05-27T12:42:00;20.90;99.90
3860;DHT22;1945;52.036;8.614;2023-05-27T12:44:27;20.80;99.90
3860;DHT22;1945;52.036;8.614;2023-05-27T12:46:56;21.00;99.90
3860;DHT22;1945;52.036;8.614;2023-05-27T12:49:22;21.10;99.90
3860;DHT22;1945;52.036;8.614;2023-05-27T12:51:49;20.90;99.90
3860;DHT22;1945;52.036;8.614;2023-05-27T12:54:16;20.90;95.80
3860;DHT22;1945;52.036;8.614;2023-05-27T12:56:42;20.90;77.90
3860;DHT22;1945;52.036;8.614;2023-05-27T12:59:09;20.80;99.90
3860;DHT22;1945;52.036;8.614;2023-05-27T13:01:36;20.80;55.70
3860;DHT22;1945;52.036;8.614;2023-05-27T13:04:04;20.90;66.40
3860;DHT22;1945;52.036;8.614;2023-05-27T13:06:31;20.90;25.80
3860;DHT22;1945;52.036;8.614;2023-05-27T13:08:58;20.80;44.00
3860;DHT22;1945;52.036;8.614;2023-05-27T13:11:24;20.80;99.90
3860;DHT22;1945;52.036;8.614;2023-05-27T13:13:51;20.60;65.60
3860;DHT22;1945;52.036;8.614;2023-05-27T13:16:18;20.80;99.90
3860;DHT22;1945;52.036;8.614;2023-05-27T13:18:45;20.70;12.50
3860;DHT22;1945;52.036;8.614;2023-05-27T13:21:13;20.90;43.10
3860;DHT22;1945;52.036;8.614;2023-05-27T13:23:40;20.80;28.20
3860;DHT22;1945;52.036;8.614;2023-05-27T13:26:06;20.70;99.70
3860;DHT22;1945;52.036;8.614;2023-05-27T13:28:33;20.80;92.20
3860;DHT22;1945;52.036;8.614;2023-05-27T13:31:00;21.10;99.90
3860;DHT22;1945;52.036;8.614;2023-05-27T13:33:29;21.10;90.60
3860;DHT22;1945;52.036;8.614;2023-05-27T13:35:56;21.00;95.40
3860;DHT22;1945;52.036;8.614;2023-05-27T13:38:24;20.80;51.30
3860;DHT22;1945;52.036;8.614;2023-05-27T13:40:50;21.10;1.00
3860;DHT22;1945;52.036;8.614;2023-05-27T13:43:17;21.20;1.00
3860;DHT22;1945;52.036;8.614;2023-05-27T13:45:44;21.30;74.20
3860;DHT22;1945;52.036;8.614;2023-05-27T13:48:10;21.30;99.90
3860;DHT22;1945;52.036;8.614;2023-05-27T13:50:37;21.20;1.00
3860;DHT22;1945;52.036;8.614;2023-05-27T13:53:04;21.20;1.00
3860;DHT22;1945;52.036;8.614;2023-05-27T13:55:32;21.20;1.00
3860;DHT22;1945;52.036;8.614;2023-05-27T13:57:59;21.30;1.00
3860;DHT22;1945;52.036;8.614;2023-05-27T14:00:25;21.20;1.00
3860;DHT22;1945;52.036;8.614;2023-05-27T14:02:52;21.10;99.90
3860;DHT22;1945;52.036;8.614;2023-05-27T14:05:19;21.20;1.00
3860;DHT22;1945;52.036;8.614;2023-05-27T14:07:46;21.20;51.60
3860;DHT22;1945;52.036;8.614;2023-05-27T14:10:13;21.20;99.90
3860;DHT22;1945;52.036;8.614;2023-05-27T14:12:41;21.30;99.90
3860;DHT22;1945;52.036;8.614;2023-05-27T14:15:08;21.30;99.90
3860;DHT22;1945;52.036;8.614;2023-05-27T14:17:35;21.30;29.00
3860;DHT22;1945;52.036;8.614;2023-05-27T14:20:03;21.20;1.00
3860;DHT22;1945;52.036;8.614;2023-05-27T14:22:30;21.30;1.00
3860;DHT22;1945;52.036;8.614;2023-05-27T14:24:57;21.30;1.00
3860;DHT22;1945;52.036;8.614;2023-05-27T14:27:23;21.30;99.90
3860;DHT22;1945;52.036;8.614;2023-05-27T14:29:51;21.30;37.10
3860;DHT22;1945;52.036;8.614;2023-05-27T14:32:18;21.30;53.20
3860;DHT22;1945;52.036;8.614;2023-05-27T14:34:45;21.10;32.80
3860;DHT22;1945;52.036;8.614;2023-05-27T14:37:11;20.90;1.00
3860;DHT22;1945;52.036;8.614;2023-05-27T14:39:38;21.10;1.00
3860;DHT22;1945;52.036;8.614;2023-05-27T14:42:05;21.10;18.00
3860;DHT22;1945;52.036;8.614;2023-05-27T14:44:34;21.10;1.00
3860;DHT22;1945;52.036;8.614;2023-05-27T14:47:03;21.10;1.00
3860;DHT22;1945;52.036;8.614;2023-05-27T14:49:30;21.10;99.90
3860;DHT22;1945;52.036;8.614;2023-05-27T14:51:57;21.00;99.90
3860;DHT22;1945;52.036;8.614;2023-05-27T14:54:24;21.10;3.10
3860;DHT22;1945;52.036;8.614;2023-05-27T14:56:50;21.20;4.50
3860;DHT22;1945;52.036;8.614;2023-05-27T14:59:17;21.30;58.10
3860;DHT22;1945;52.036;8.614;2023-05-27T15:01:46;21.30;99.90
3860;DHT22;1945;52.036;8.614;2023-05-27T15:04:15;21.30;1.00
3860;DHT22;1945;52.036;8.614;2023-05-27T15:06:42;21.20;1.00
3860;DHT22;1945;52.036;8.614;2023-05-27T15:09:09;21.20;1.00
3860;DHT22;1945;52.036;8.614;2023-05-27T15:11:37;21.30;1.00
3860;DHT22;1945;52.036;8.614;2023-05-27T15:14:04;21.00;1.00
3860;DHT22;1945;52.036;8.614;2023-05-27T15:16:30;20.90;1.00
3860;DHT22;1945;52.036;8.614;2023-05-27T15:18:57;20.90;1.00
3860;DHT22;1945;52.036;8.614;2023-05-27T15:21:26;21.00;1.00
3860;DHT22;1945;52.036;8.614;2023-05-27T15:23:53;21.10;1.00
3860;DHT22;1945;52.036;8.614;2023-05-27T15:26:19;20.90;1.00
3860;DHT22;1945;52.036;8.614;2023-05-27T15:28:47;20.90;1.00
3860;DHT22;1945;52.036;8.614;2023-05-27T15:31:14;20.50;1.00
3860;DHT22;1945;52.036;8.614;2023-05-27T15:33:40;20.90;1.00
3860;DHT22;1945;52.036;8.614;2023-05-27T15:36:07;20.90;1.00
3860;DHT22;1945;52.036;8.614;2023-05-27T15:38:36;20.80;1.00
3860;DHT22;1945;52.036;8.614;2023-05-27T15:41:02;20.90;1.00
3860;DHT22;1945;52.036;8.614;2023-05-27T15:43:29;20.90;1.00
3860;DHT22;1945;52.036;8.614;2023-05-27T15:45:56;21.00;1.00
3860;DHT22;1945;52.036;8.614;2023-05-27T15:48:22;21.00;1.00
3860;DHT22;1945;52.036;8.614;2023-05-27T15:50:50;20.90;1.00
3860;DHT22;1945;52.036;8.614;2023-05-27T15:53:17;20.90;1.00
3860;DHT22;1945;52.036;8.614;2023-05-27T15:55:45;20.90;1.00
3860;DHT22;1945;52.036;8.614;2023-05-27T15:58:11;20.90;1.00
3860;DHT22;1945;52.036;8.614;2023-05-27T16:00:38;20.80;1.00
3860;DHT22;1945;52.036;8.614;2023-05-27T16:03:05;20.80;1.00
3860;DHT22;1945;52.036;8.614;2023-05-27T16:05:31;20.80;1.00
3860;DHT22;1945;52.036;8.614;2023-05-27T16:07:58;20.80;1.00
3860;DHT22;1945;52.036;8.614;2023-05-27T16:10:25;20.70;1.00
3860;DHT22;1945;52.036;8.614;2023-05-27T16:12:53;20.70;1.00
3860;DHT22;1945;52.036;8.614;2023-05-27T16:15:20;20.70;1.00
3860;DHT22;1945;52.036;8.614;2023-05-27T16:17:46;20.70;1.00
3860;DHT22;1945;52.036;8.614;2023-05-27T16:20:13;20.80;1.00